Time;durP1;ratioP1;P1;durP2;ratioP2;P2;SDS_P1;SDS_P2;PMS_P1;PMS_P2;Temp;Humidity;BMP_temperature;BMP_pressure;BME280_temperature;BME280_humidity;BME280_pressure;Samples;Min_cycle;Max_cycle;Signal;HPM_P1;HPM_P2
2023/01/17 00:00:47;;;;;;;13.38;7.30;;;;;;;3.27;100.00;99357.25;1719001;83;21110;-67
2023/01/17 00:03:16;;;;;;;18.55;8.28;;;;;;;3.29;100.00;99363.33;1719295;83;21131;-67
2023/01/17 00:11:22;;;;;;;18.15;8.63;;;;;;;3.30;100.00;99356.89;1719316;83;21154;-67
2023/01/17 00:13:52;;;;;;;17.67;8.70;;;;;;;3.32;100.00;99358.07;1720090;83;21142;-67
2023/01/17 00:16:21;;;;;;;18.80;8.95;;;;;;;3.32;100.00;99356.20;1722850;83;21114;-67
2023/01/17 01:35:27;;;;;;;16.10;7.70;;;;;;;3.64;100.00;99293.39;1725684;83;21194;-66
2023/01/17 01:37:56;;;;;;;17.45;8.13;;;;;;;3.64;100.00;99294.75;1693615;83;21277;-68
2023/01/17 01:40:26;;;;;;;16.35;8.25;;;;;;;3.63;100.00;99299.33;1725538;83;21165;-67
2023/01/17 01:42:58;;;;;;;15.80;7.67;;;;;;;3.64;100.00;99290.17;1725498;83;21205;-66
2023/01/17 01:45:31;;;;;;;17.85;8.33;;;;;;;3.64;100.00;99287.98;1725647;83;21098;-67
2023/01/17 01:48:05;;;;;;;19.27;8.45;;;;;;;3.64;100.00;99295.59;1693717;83;21103;-67
2023/01/17 01:50:36;;;;;;;16.73;8.00;;;;;;;3.65;100.00;99282.89;1725915;83;21162;-68
2023/01/17 01:53:06;;;;;;;15.23;8.30;;;;;;;3.65;100.00;99276.96;1693004;83;21212;-67
2023/01/17 01:55:39;;;;;;;17.32;7.92;;;;;;;3.67;100.00;99268.14;1725866;83;21126;-68
2023/01/17 01:58:19;;;;;;;18.27;8.65;;;;;;;3.67;100.00;99271.37;1725619;83;21589;-67
2023/01/17 02:00:49;;;;;;;21.30;9.03;;;;;;;3.67;100.00;99273.56;1725645;83;21169;-66
2023/01/17 02:03:26;;;;;;;16.97;8.50;;;;;;;3.67;100.00;99272.72;1725677;83;21441;-67
2023/01/17 02:05:56;;;;;;;18.85;9.13;;;;;;;3.67;100.00;99265.95;1725962;83;21118;-67
2023/01/17 02:08:28;;;;;;;18.07;8.98;;;;;;;3.68;100.00;99264.92;1725647;83;21607;-67
2023/01/17 02:10:58;;;;;;;19.12;9.20;;;;;;;3.68;100.00;99268.98;1725973;83;21145;-67
2023/01/17 02:13:30;;;;;;;21.48;9.25;;;;;;;3.70;100.00;99262.88;1725753;83;21127;-69
2023/01/17 02:16:12;;;;;;;19.15;9.08;;;;;;;3.71;100.00;99269.98;1723114;83;21126;-67
2023/01/17 02:19:23;;;;;;;18.50;8.75;;;;;;;3.71;100.00;99256.44;1693739;83;21605;-67
2023/01/17 02:22:28;;;;;;;16.52;8.45;;;;;;;3.72;100.00;99258.12;1722875;83;21570;-67
2023/01/17 02:25:05;;;;;;;21.23;9.23;;;;;;;3.71;100.00;99249.66;1667556;86;21175;-68
2023/01/17 02:27:42;;;;;;;16.32;7.97;;;;;;;3.71;100.00;99243.73;1645560;86;21259;-68
2023/01/17 02:30:40;;;;;;;17.87;8.00;;;;;;;3.72;100.00;99239.16;1667463;86;21158;-65
2023/01/17 02:33:41;;;;;;;21.97;8.95;;;;;;;3.71;100.00;99238.31;1667711;86;21195;-64
2023/01/17 02:36:25;;;;;;;16.40;8.75;;;;;;;3.71;100.00;99232.05;1667681;86;21203;-64
2023/01/17 02:39:05;;;;;;;17.65;8.33;;;;;;;3.70;100.00;99224.95;1660897;86;22211;-63
2023/01/17 02:41:42;;;;;;;15.10;8.58;;;;;;;3.69;100.00;99216.50;1667630;86;21192;-63
2023/01/17 02:44:15;;;;;;;15.63;8.43;;;;;;;3.69;100.00;99221.92;1718716;83;21186;-63
2023/01/17 02:46:52;;;;;;;18.17;7.92;;;;;;;3.69;100.00;99208.37;1701679;83;21592;-65
2023/01/17 02:49:27;;;;;;;19.57;8.08;;;;;;;3.68;100.00;99206.17;1723233;83;21166;-63
2023/01/17 02:52:20;;;;;;;19.77;8.08;;;;;;;3.66;100.00;99204.16;1723029;83;21518;-63
2023/01/17 02:55:33;;;;;;;16.32;7.58;;;;;;;3.66;100.00;99204.16;1723160;83;21143;-63
2023/01/17 02:58:29;;;;;;;16.42;8.15;;;;;;;3.67;100.00;99198.23;1722781;83;21166;-65
2023/01/17 03:01:28;;;;;;;17.20;8.40;;;;;;;3.67;100.00;99192.30;1723213;83;21162;-63
2023/01/17 03:04:07;;;;;;;20.80;9.00;;;;;;;3.65;100.00;99186.23;1700722;83;21534;-64
2023/01/17 03:06:42;;;;;;;18.23;8.65;;;;;;;3.63;100.00;99190.15;1721057;83;21139;-64
2023/01/17 03:09:13;;;;;;;21.95;9.28;;;;;;;3.64;100.00;99197.25;1701162;83;21166;-64
2023/01/17 03:11:44;;;;;;;16.97;8.33;;;;;;;3.64;100.00;99186.41;1722782;83;21101;-64
2023/01/17 03:14:14;;;;;;;21.57;9.00;;;;;;;3.64;100.00;99195.38;1700648;83;21193;-64
2023/01/17 03:16:44;;;;;;;17.85;8.95;;;;;;;3.64;100.00;99196.73;1701012;83;21114;-64
2023/01/17 03:19:14;;;;;;;22.90;8.55;;;;;;;3.64;100.00;99189.12;1723049;83;21649;-63
2023/01/17 03:21:45;;;;;;;21.25;8.88;;;;;;;3.62;100.00;99189.81;1722932;83;21131;-66
2023/01/17 03:24:16;;;;;;;21.73;8.48;;;;;;;3.61;100.00;99186.27;1722850;83;21126;-64
2023/01/17 03:26:46;;;;;;;18.90;8.93;;;;;;;3.62;100.00;99180.34;1722705;83;21166;-65
2023/01/17 03:29:16;;;;;;;21.23;8.83;;;;;;;3.61;100.00;99175.95;1723050;83;21447;-66
2023/01/17 03:31:45;;;;;;;18.52;8.30;;;;;;;3.61;100.00;99180.85;1722839;83;21134;-65
2023/01/17 03:34:14;;;;;;;17.42;8.40;;;;;;;3.60;100.00;99173.75;1700735;83;21135;-67
2023/01/17 03:36:43;;;;;;;18.00;8.88;;;;;;;3.61;100.00;99177.30;1723127;83;21111;-65
2023/01/17 03:39:13;;;;;;;15.28;7.42;;;;;;;3.62;100.00;99177.63;1722741;83;21178;-64
2023/01/17 03:41:42;;;;;;;17.52;8.83;;;;;;;3.61;100.00;99180.01;1723006;83;21146;-65
2023/01/17 03:44:11;;;;;;;18.07;8.48;;;;;;;3.61;100.00;99184.08;1722896;83;21102;-65
2023/01/17 03:46:43;;;;;;;19.55;8.58;;;;;;;3.61;100.00;99171.89;1700378;83;21126;-64
2023/01/17 03:49:12;;;;;;;17.98;8.55;;;;;;;3.61;100.00;99173.23;1722886;83;21138;-66
2023/01/17 03:51:41;;;;;;;16.52;8.13;;;;;;;3.62;100.00;99173.56;1722650;83;21095;-66
2023/01/17 03:54:11;;;;;;;21.30;7.90;;;;;;;3.62;100.00;99173.56;1722987;83;21126;-67
2023/01/17 03:56:41;;;;;;;16.77;8.20;;;;;;;3.63;100.00;99172.55;1722832;83;21198;-65
2023/01/17 03:59:12;;;;;;;14.98;7.75;;;;;;;3.66;100.00;99165.41;1722892;83;21158;-65
2023/01/17 04:01:41;;;;;;;15.50;7.95;;;;;;;3.68;100.00;99157.94;1722712;83;21230;-67
2023/01/17 04:04:10;;;;;;;14.03;8.08;;;;;;;3.70;100.00;99161.30;1722714;83;21181;-65
2023/01/17 04:06:40;;;;;;;13.45;7.50;;;;;;;3.72;100.00;99160.09;1722733;83;21166;-66
2023/01/17 04:09:10;;;;;;;16.80;8.38;;;;;;;3.74;100.00;99147.20;1722991;83;21142;-66
2023/01/17 04:11:40;;;;;;;18.82;8.98;;;;;;;3.76;100.00;99152.44;1723044;83;21111;-66
2023/01/17 04:14:09;;;;;;;16.05;8.45;;;;;;;3.77;100.00;99141.93;1722660;83;21189;-65
2023/01/17 04:16:38;;;;;;;15.65;8.80;;;;;;;3.78;100.00;99132.78;1722803;83;21821;-67
2023/01/17 04:19:11;;;;;;;16.10;8.43;;;;;;;3.78;100.00;99143.10;1723170;83;21142;-66
2023/01/17 04:21:41;;;;;;;19.32;9.03;;;;;;;3.80;100.00;99151.05;1723049;83;21597;-65
2023/01/17 04:24:10;;;;;;;19.55;9.30;;;;;;;3.80;100.00;99148.33;1722836;83;21123;-65
2023/01/17 04:26:39;;;;;;;19.82;9.40;;;;;;;3.78;100.00;99147.16;1722703;83;21611;-66
2023/01/17 04:29:07;;;;;;;20.08;9.40;;;;;;;3.77;100.00;99144.64;1722776;83;21130;-67
2023/01/17 04:31:36;;;;;;;19.55;9.38;;;;;;;3.77;100.00;99146.00;1722679;83;21202;-65
2023/01/17 04:34:07;;;;;;;22.48;10.58;;;;;;;3.77;100.00;99146.00;1722824;83;21122;-65
2023/01/17 04:36:37;;;;;;;24.87;9.68;;;;;;;3.77;100.00;99149.55;1722788;83;21182;-67
2023/01/17 04:39:06;;;;;;;18.77;9.85;;;;;;;3.78;100.00;99148.52;1722637;83;21119;-65
2023/01/17 04:41:37;;;;;;;22.82;10.40;;;;;;;3.80;100.00;99153.75;1722966;83;21162;-67
2023/01/17 04:44:06;;;;;;;22.37;10.28;;;;;;;3.79;100.00;99148.01;1723100;83;21166;-67
2023/01/17 04:46:38;;;;;;;27.37;10.48;;;;;;;3.80;100.00;99147.82;1722774;83;21491;-66
2023/01/17 04:49:08;;;;;;;21.45;10.20;;;;;;;3.80;100.00;99150.53;1723151;83;21134;-67
2023/01/17 04:51:37;;;;;;;21.73;10.25;;;;;;;3.80;100.00;99153.75;1722922;83;21197;-66
2023/01/17 04:54:07;;;;;;;28.55;11.40;;;;;;;3.80;100.00;99153.75;1700231;83;21181;-67
2023/01/17 04:56:36;;;;;;;23.65;10.15;;;;;;;3.81;100.00;99148.66;1723061;83;21131;-67
2023/01/17 04:59:05;;;;;;;20.32;9.85;;;;;;;3.81;100.00;99151.38;1722951;83;21146;-66
2023/01/17 05:01:35;;;;;;;27.55;10.43;;;;;;;3.81;100.00;99152.21;1723007;83;21162;-66
2023/01/17 05:04:05;;;;;;;23.47;10.75;;;;;;;3.82;100.00;99146.28;1722856;83;21178;-67
2023/01/17 05:06:36;;;;;;;22.80;11.75;;;;;;;3.80;100.00;99145.63;1723154;83;21127;-66
2023/01/17 05:09:06;;;;;;;22.70;10.45;;;;;;;3.80;100.00;99140.20;1722858;83;21197;-68
2023/01/17 05:11:36;;;;;;;23.42;10.82;;;;;;;3.79;100.00;99139.37;1723060;83;21126;-66
2023/01/17 05:14:06;;;;;;;24.00;11.50;;;;;;;3.78;100.00;99146.32;1722892;83;21130;-65
2023/01/17 05:16:36;;;;;;;22.93;10.80;;;;;;;3.79;100.00;99139.87;1719858;83;21128;-66
2023/01/17 05:19:05;;;;;;;22.35;11.65;;;;;;;3.80;100.00;99141.05;1718984;83;21142;-66
2023/01/17 05:21:35;;;;;;;22.77;11.30;;;;;;;3.80;100.00;99134.28;1719237;83;21568;-66
2023/01/17 05:24:06;;;;;;;27.15;11.88;;;;;;;3.81;100.00;99134.60;1719090;83;21134;-66
2023/01/17 05:26:36;;;;;;;26.50;11.57;;;;;;;3.81;100.00;99135.95;1718935;83;21138;-65
2023/01/17 05:29:05;;;;;;;26.23;11.50;;;;;;;3.81;100.00;99134.60;1719188;83;21581;-66
2023/01/17 05:31:36;;;;;;;23.55;12.23;;;;;;;3.82;100.00;99129.52;1719104;83;21103;-67
2023/01/17 05:34:06;;;;;;;27.20;12.90;;;;;;;3.83;100.00;99133.91;1719113;83;21613;-66
2023/01/17 05:36:35;;;;;;;28.32;11.95;;;;;;;3.86;100.00;99131.34;1718931;83;21130;-67
2023/01/17 05:39:08;;;;;;;29.42;12.95;;;;;;;3.88;100.00;99134.70;1718970;83;21612;-66
2023/01/17 05:41:37;;;;;;;26.65;11.50;;;;;;;3.89;100.00;99132.32;1719048;83;21123;-67
2023/01/17 05:44:06;;;;;;;27.98;13.05;;;;;;;3.92;100.00;99129.27;1718897;83;21158;-66
2023/01/17 05:46:36;;;;;;;28.85;13.80;;;;;;;3.93;100.00;99130.95;1719110;83;21178;-66
2023/01/17 05:49:05;;;;;;;31.70;13.18;;;;;;;3.93;100.00;99131.47;1719053;83;21218;-65
2023/01/17 05:51:38;;;;;;;27.93;13.35;;;;;;;3.93;100.00;99128.76;1718994;83;21553;-67
2023/01/17 05:54:08;;;;;;;26.50;12.88;;;;;;;3.94;100.00;99127.22;1719164;83;21170;-66
2023/01/17 05:56:38;;;;;;;30.25;13.60;;;;;;;3.95;100.00;99137.55;1718889;83;21158;-67
2023/01/17 05:59:07;;;;;;;33.98;14.15;;;;;;;3.95;100.00;99132.96;1718990;83;21095;-68
2023/01/17 06:01:36;;;;;;;27.00;13.70;;;;;;;3.96;100.00;99133.29;1698687;83;21166;-66
2023/01/17 06:04:05;;;;;;;29.12;14.58;;;;;;;3.99;100.00;99138.84;1718973;83;21122;-67
2023/01/17 06:06:36;;;;;;;29.65;13.70;;;;;;;3.98;100.00;99131.23;1695329;83;21134;-67
2023/01/17 06:09:05;;;;;;;35.13;14.90;;;;;;;3.99;100.00;99133.43;1719147;83;21182;-65
2023/01/17 06:11:35;;;;;;;29.37;14.93;;;;;;;3.99;100.00;99153.23;1719152;83;21118;-68
2023/01/17 06:14:04;;;;;;;33.50;15.50;;;;;;;3.99;100.00;99145.63;1718917;83;21166;-67
2023/01/17 06:16:35;;;;;;;33.33;15.30;;;;;;;4.00;100.00;99154.92;1721434;83;21170;-66
2023/01/17 06:19:05;;;;;;;34.85;15.18;;;;;;;4.01;100.00;99157.12;1723186;83;21102;-67
2023/01/17 06:21:34;;;;;;;31.02;14.55;;;;;;;4.01;100.00;99159.31;1722901;83;21112;-68
2023/01/17 06:24:06;;;;;;;30.80;15.03;;;;;;;4.02;100.00;99171.00;1723162;83;21139;-67
2023/01/17 06:26:36;;;;;;;34.65;16.67;;;;;;;4.02;100.00;99167.77;1723008;83;21099;-67
2023/01/17 06:29:05;;;;;;;34.75;16.15;;;;;;;4.01;100.00;99171.52;1722780;83;21558;-67
2023/01/17 06:31:34;;;;;;;33.45;14.75;;;;;;;4.03;100.00;99175.39;1700914;83;21103;-68
2023/01/17 06:34:03;;;;;;;37.65;15.10;;;;;;;4.04;100.00;99167.07;1677932;83;21155;-67
2023/01/17 06:36:32;;;;;;;34.67;15.80;;;;;;;4.06;100.00;99164.17;1722866;83;21135;-66
2023/01/17 06:39:03;;;;;;;35.05;16.07;;;;;;;4.08;100.00;99164.31;1722945;83;21526;-68
2023/01/17 06:41:33;;;;;;;33.30;15.68;;;;;;;4.11;100.00;99180.72;1722975;83;21210;-66
2023/01/17 06:44:02;;;;;;;32.28;14.50;;;;;;;4.13;100.00;99175.95;1722845;83;21621;-68
2023/01/17 06:46:32;;;;;;;31.23;15.53;;;;;;;4.15;100.00;99173.90;1722768;83;21142;-68
2023/01/17 06:49:01;;;;;;;31.73;15.28;;;;;;;4.16;100.00;99174.73;1700621;83;21185;-66
2023/01/17 06:51:30;;;;;;;32.90;15.05;;;;;;;4.19;100.00;99177.08;1723169;83;21115;-67
2023/01/17 06:54:01;;;;;;;36.38;15.03;;;;;;;4.19;100.00;99168.43;1667487;85;21255;-66
2023/01/17 06:56:33;;;;;;;34.65;15.15;;;;;;;4.22;100.00;99171.28;1667784;86;21790;-68
2023/01/17 06:59:03;;;;;;;33.63;15.18;;;;;;;4.23;100.00;99172.96;1667696;86;21187;-68
2023/01/17 07:01:33;;;;;;;33.88;14.98;;;;;;;4.23;100.00;99177.03;1667686;86;21147;-66
2023/01/17 07:04:05;;;;;;;32.00;14.33;;;;;;;4.25;100.00;99164.97;1667554;86;21203;-67
2023/01/17 07:06:36;;;;;;;34.75;15.45;;;;;;;4.27;100.00;99166.14;1667688;86;21153;-67
2023/01/17 07:09:08;;;;;;;31.23;15.15;;;;;;;4.27;100.00;99164.78;1667604;86;21681;-66
2023/01/17 07:11:37;;;;;;;38.53;15.80;;;;;;;4.28;100.00;99170.53;1667650;86;21164;-68
2023/01/17 07:14:15;;;;;;;35.08;16.32;;;;;;;4.29;100.00;99171.70;1667660;86;21164;-69
2023/01/17 07:16:47;;;;;;;31.05;14.00;;;;;;;4.31;100.00;99167.44;1667873;86;21365;-68
2023/01/17 07:19:16;;;;;;;29.87;14.23;;;;;;;4.31;100.00;99164.73;1688062;83;21123;-68
2023/01/17 07:21:45;;;;;;;31.25;16.02;;;;;;;4.32;100.00;99171.84;1721260;83;21205;-68
2023/01/17 07:24:14;;;;;;;34.23;16.25;;;;;;;4.33;100.00;99168.09;1706300;84;21096;-68
2023/01/17 07:26:43;;;;;;;34.50;16.45;;;;;;;4.33;100.00;99172.16;1721478;83;21139;-68
2023/01/17 07:29:13;;;;;;;30.80;14.78;;;;;;;4.33;100.00;99167.58;1705899;84;21155;-68
2023/01/17 07:31:42;;;;;;;30.85;15.68;;;;;;;4.36;100.00;99165.01;1721403;83;21538;-69
2023/01/17 07:34:12;;;;;;;30.10;14.75;;;;;;;4.35;100.00;99165.52;1706186;84;21099;-68
2023/01/17 07:36:41;;;;;;;33.78;14.83;;;;;;;4.36;100.00;99163.14;1721275;83;21158;-67
2023/01/17 07:39:12;;;;;;;38.40;15.85;;;;;;;4.36;100.00;99163.66;1721217;83;21131;-67
2023/01/17 07:41:41;;;;;;;35.03;14.98;;;;;;;4.36;100.00;99163.14;1706169;84;21151;-67
2023/01/17 07:44:13;;;;;;;30.10;14.98;;;;;;;4.38;100.00;99165.15;1721364;83;21535;-69
2023/01/17 07:46:41;;;;;;;30.57;14.63;;;;;;;4.39;100.00;99157.85;1721169;83;21134;-67
2023/01/17 07:49:10;;;;;;;35.40;16.05;;;;;;;4.38;100.00;99151.59;1705975;84;21179;-69
2023/01/17 07:51:40;;;;;;;32.13;15.10;;;;;;;4.38;100.00;99151.59;1721651;83;21550;-68
2023/01/17 07:54:11;;;;;;;35.78;15.48;;;;;;;4.40;100.00;99147.33;1721123;83;21242;-68
2023/01/17 07:56:44;;;;;;;33.08;16.55;;;;;;;4.39;100.00;99153.27;1705846;84;21183;-68
2023/01/17 07:59:12;;;;;;;33.80;15.95;;;;;;;4.40;100.00;99158.18;1721428;83;21130;-67
2023/01/17 08:01:45;;;;;;;38.45;16.60;;;;;;;4.40;100.00;99160.38;1701948;83;21138;-66
2023/01/17 08:04:16;;;;;;;37.53;17.27;;;;;;;4.38;100.00;99161.08;1700872;83;21177;-69
2023/01/17 08:06:47;;;;;;;34.85;16.85;;;;;;;4.39;100.00;99149.20;1706053;84;21522;-67
2023/01/17 08:09:16;;;;;;;35.58;15.85;;;;;;;4.40;100.00;99152.76;1721479;83;21102;-68
2023/01/17 08:11:47;;;;;;;41.95;16.82;;;;;;;4.40;100.00;99151.41;1721164;83;21106;-65
2023/01/17 08:14:16;;;;;;;37.15;15.72;;;;;;;4.39;100.00;99151.92;1700673;83;21186;-67
2023/01/17 08:16:47;;;;;;;39.03;16.12;;;;;;;4.41;100.00;99151.73;1720161;83;21143;-67
2023/01/17 08:19:16;;;;;;;33.13;14.87;;;;;;;4.42;100.00;99156.13;1719104;83;21138;-66
2023/01/17 08:21:45;;;;;;;38.05;16.40;;;;;;;4.40;100.00;99148.69;1718981;83;21166;-66
2023/01/17 08:24:16;;;;;;;32.95;16.37;;;;;;;4.40;100.00;99150.05;1719040;83;21102;-66
2023/01/17 08:26:45;;;;;;;34.18;16.40;;;;;;;4.40;100.00;99149.53;1719083;83;21123;-67
2023/01/17 08:29:15;;;;;;;32.08;15.75;;;;;;;4.41;100.00;99149.02;1719291;83;21139;-68
2023/01/17 08:31:43;;;;;;;30.05;14.70;;;;;;;4.40;100.00;99141.39;1718966;83;21174;-69
2023/01/17 08:34:17;;;;;;;36.98;16.73;;;;;;;4.40;100.00;99137.33;1719067;83;21170;-67
2023/01/17 08:36:46;;;;;;;31.80;15.70;;;;;;;4.41;100.00;99129.52;1719200;83;21159;-69
2023/01/17 08:39:16;;;;;;;40.63;16.75;;;;;;;4.41;100.00;99130.88;1719303;83;21147;-66
2023/01/17 08:41:46;;;;;;;34.85;17.12;;;;;;;4.43;100.00;99129.33;1719340;83;21166;-67
2023/01/17 08:44:17;;;;;;;32.80;16.48;;;;;;;4.44;100.00;99125.07;1719084;83;21138;-66
2023/01/17 08:46:47;;;;;;;38.88;16.30;;;;;;;4.44;100.00;99125.59;1719057;83;21142;-67
2023/01/17 08:49:19;;;;;;;36.65;16.82;;;;;;;4.45;100.00;99117.27;1718906;83;21237;-65
2023/01/17 08:51:51;;;;;;;39.65;16.55;;;;;;;4.48;100.00;99120.62;1718086;83;21437;-66
2023/01/17 08:54:21;;;;;;;32.05;15.63;;;;;;;4.50;100.00;99115.85;1719054;82;21621;-67
2023/01/17 08:56:51;;;;;;;39.23;16.75;;;;;;;4.51;100.00;99106.17;1692722;83;21143;-67
2023/01/17 08:59:22;;;;;;;33.65;15.53;;;;;;;4.51;100.00;99106.17;1715550;83;21099;-64
2023/01/17 09:01:54;;;;;;;41.73;16.87;;;;;;;4.52;100.00;99100.23;1715503;82;21131;-66
2023/01/17 09:04:24;;;;;;;36.13;16.40;;;;;;;4.52;100.00;99097.00;1712824;84;21166;-66
2023/01/17 09:06:53;;;;;;;36.77;16.82;;;;;;;4.52;100.00;99094.29;1712830;84;21566;-67
2023/01/17 09:09:24;;;;;;;32.60;15.20;;;;;;;4.56;100.00;99092.91;1712961;83;21123;-67
2023/01/17 09:11:53;;;;;;;35.78;15.95;;;;;;;4.54;100.00;99090.87;1722640;83;21119;-67
2023/01/17 09:14:22;;;;;;;41.18;16.37;;;;;;;4.56;100.00;99086.13;1727060;83;21171;-68
2023/01/17 09:16:51;;;;;;;35.08;16.87;;;;;;;4.58;100.00;99081.35;1724567;83;21171;-66
2023/01/17 09:19:21;;;;;;;33.15;16.97;;;;;;;4.60;100.00;99082.00;1720958;83;21200;-67
2023/01/17 09:21:50;;;;;;;35.08;17.23;;;;;;;4.62;100.00;99079.09;1720739;83;21132;-67
2023/01/17 09:24:19;;;;;;;41.25;17.37;;;;;;;4.64;100.00;99071.60;1720785;83;21171;-66
2023/01/17 09:26:48;;;;;;;41.45;18.35;;;;;;;4.65;100.00;99062.44;1704313;83;21156;-67
2023/01/17 09:29:18;;;;;;;40.58;17.90;;;;;;;4.66;100.00;99060.88;1720523;83;21167;-67
2023/01/17 09:31:47;;;;;;;36.90;16.85;;;;;;;4.66;100.00;99053.27;1721212;83;21139;-66
2023/01/17 09:34:18;;;;;;;41.80;17.17;;;;;;;4.66;100.00;99055.45;1720847;83;21126;-66
2023/01/17 09:36:48;;;;;;;43.68;17.40;;;;;;;4.65;100.00;99051.06;1692583;83;21138;-67
2023/01/17 09:39:17;;;;;;;39.35;16.20;;;;;;;4.65;100.00;99053.78;1720947;83;21163;-66
2023/01/17 09:42:17;;;;;;;34.88;17.10;;;;;;;4.65;100.00;99047.00;1720575;83;21217;-67
2023/01/17 09:44:53;;;;;;;37.03;16.25;;;;;;;4.68;100.00;99033.05;1714277;83;21628;-66
2023/01/17 09:47:48;;;;;;;37.03;16.97;;;;;;;4.69;100.00;99037.44;1688918;83;21646;-66
2023/01/17 09:50:39;;;;;;;35.33;15.95;;;;;;;4.70;100.00;99032.34;1720829;83;21175;-66
2023/01/17 09:53:15;;;;;;;34.60;16.62;;;;;;;4.72;100.00;99033.50;1711899;83;21597;-65
2023/01/17 09:56:00;;;;;;;34.40;16.42;;;;;;;4.73;100.00;99029.23;1720723;83;21142;-66
2023/01/17 09:58:45;;;;;;;40.17;16.90;;;;;;;4.72;100.00;99022.65;1720728;83;21173;-66
2023/01/17 10:01:38;;;;;;;42.43;17.37;;;;;;;4.74;100.00;99025.48;1692280;83;21139;-66
2023/01/17 10:04:25;;;;;;;46.25;24.00;;;;;;;4.75;100.00;99027.69;1686719;85;21131;-65
2023/01/17 10:07:34;;;;;;;43.45;17.37;;;;;;;4.75;100.00;99021.74;1686912;85;21223;-66
2023/01/17 10:10:36;;;;;;;42.65;16.77;;;;;;;4.75;100.00;99021.74;1686710;85;21178;-67
2023/01/17 10:13:34;;;;;;;37.30;15.60;;;;;;;4.76;100.00;99019.35;1686888;85;21562;-66
2023/01/17 10:16:18;;;;;;;35.50;16.23;;;;;;;4.76;100.00;99013.09;1686536;85;21198;-65
2023/01/17 10:19:19;;;;;;;40.92;17.27;;;;;;;4.76;100.00;99011.21;1686867;85;21139;-64
2023/01/17 10:22:09;;;;;;;36.88;16.45;;;;;;;4.78;100.00;99009.66;1686845;85;21494;-66
2023/01/17 10:25:02;;;;;;;41.48;17.60;;;;;;;4.78;100.00;99016.45;1686868;85;21171;-66
2023/01/17 10:27:36;;;;;;;36.17;17.32;;;;;;;4.77;100.00;99004.75;1686719;85;21095;-66
2023/01/17 10:30:16;;;;;;;39.75;16.32;;;;;;;4.78;100.00;99008.30;1666887;85;21152;-67
2023/01/17 10:32:48;;;;;;;36.63;16.87;;;;;;;4.82;100.00;99006.04;1686628;85;21166;-68
2023/01/17 10:35:25;;;;;;;38.67;17.40;;;;;;;4.83;100.00;99009.92;1686640;85;21147;-65
2023/01/17 10:37:57;;;;;;;;;;;;;;;4.83;100.00;99001.77;1689113;85;21174;-66
2023/01/17 10:40:44;;;;;;;40.90;17.27;;;;;;;4.84;100.00;99005.33;1666572;85;20178;-66
2023/01/17 10:43:54;;;;;;;44.98;19.42;;;;;;;4.85;100.00;99002.42;1686822;85;21170;-66
2023/01/17 10:46:33;;;;;;;42.33;17.65;;;;;;;4.85;100.00;99002.42;1686710;85;21174;-67
2023/01/17 10:49:03;;;;;;;43.33;18.65;;;;;;;4.86;100.00;99000.03;1589152;89;21193;-67
2023/01/17 10:51:58;;;;;;;47.67;20.23;;;;;;;4.88;100.00;99002.55;1610142;89;21198;-66
2023/01/17 10:55:08;;;;;;;37.20;18.05;;;;;;;4.90;100.00;98996.41;1609807;89;21201;-66
2023/01/17 10:57:44;;;;;;;41.80;18.65;;;;;;;4.91;100.00;98987.23;1609710;89;21165;-65
2023/01/17 11:00:49;;;;;;;41.28;18.10;;;;;;;4.93;100.00;98983.80;1610162;89;21201;-66
2023/01/17 11:03:22;;;;;;;38.53;19.12;;;;;;;4.92;100.00;98978.05;1643282;86;22318;-65
2023/01/17 11:06:16;;;;;;;40.95;18.45;;;;;;;4.92;100.00;98976.69;1651745;87;21146;-66
2023/01/17 11:08:56;;;;;;;43.75;20.08;;;;;;;4.93;100.00;98975.66;1715437;84;21656;-65
2023/01/17 11:11:30;;;;;;;44.40;20.90;;;;;;;4.94;100.00;98963.77;1715195;84;21166;-66
2023/01/17 11:14:07;;;;;;;44.10;20.92;;;;;;;4.95;100.00;98963.57;1695362;84;21143;-65
2023/01/17 11:17:01;;;;;;;42.27;18.42;;;;;;;4.95;100.00;98956.78;1711543;84;21170;-63
2023/01/17 11:19:34;;;;;;;45.25;19.25;;;;;;;4.97;100.00;98952.52;1722753;83;21185;-63
2023/01/17 11:22:06;;;;;;;45.28;18.55;;;;;;;4.99;100.00;98954.52;1724059;83;21162;-63
2023/01/17 11:24:50;;;;;;;38.42;17.75;;;;;;;4.98;100.00;98948.77;1722694;83;21548;-63
2023/01/17 11:27:29;;;;;;;45.73;18.32;;;;;;;5.00;100.00;98956.19;1722472;83;21629;-64
2023/01/17 11:30:19;;;;;;;39.58;18.50;;;;;;;5.02;100.00;98956.83;1722436;83;21106;-63
2023/01/17 11:32:59;;;;;;;38.35;18.10;;;;;;;5.02;100.00;98950.89;1722677;83;21134;-64
2023/01/17 11:35:32;;;;;;;40.67;16.80;;;;;;;5.03;100.00;98949.85;1722410;83;21130;-62
2023/01/17 11:38:20;;;;;;;43.98;18.73;;;;;;;5.04;100.00;98934.41;1700611;83;21099;-63
2023/01/17 11:41:18;;;;;;;45.98;17.70;;;;;;;5.03;100.00;98939.52;1722540;83;21553;-63
2023/01/17 11:43:28;;;;;;;43.63;20.25;;;;;;;5.05;100.00;98948.30;1719490;83;21177;-63
2023/01/17 11:46:05;;;;;;;46.08;19.62;;;;;;;5.08;100.00;98943.83;1722501;83;21161;-62
2023/01/17 11:48:38;;;;;;;45.48;20.85;;;;;;;5.08;100.00;98933.81;1722651;83;21138;-64
2023/01/17 11:51:31;;;;;;;42.98;19.00;;;;;;;5.10;100.00;98927.66;1722716;83;21561;-62
2023/01/17 11:54:24;;;;;;;43.78;19.73;;;;;;;5.12;100.00;98916.61;1722583;83;21181;-64
2023/01/17 11:56:59;;;;;;;50.67;20.68;;;;;;;5.16;100.00;98920.59;1639442;87;21230;-64
2023/01/17 11:59:36;;;;;;;48.05;19.85;;;;;;;5.16;100.00;98914.33;1639455;87;21751;-63
2023/01/17 12:02:39;;;;;;;45.05;19.73;;;;;;;5.15;100.00;98917.56;1623134;87;21146;-63
2023/01/17 12:05:40;;;;;;;46.55;19.57;;;;;;;5.13;100.00;98916.92;1651323;87;21154;-62
2023/01/17 12:08:50;;;;;;;44.63;19.82;;;;;;;5.10;100.00;98911.37;1651282;87;21194;-62
2023/01/17 12:14:56;;;;;;;50.95;21.48;;;;;;;5.05;100.00;98913.02;1677402;82;21218;-62
2023/01/17 12:17:31;;;;;;;49.93;19.17;;;;;;;5.03;100.00;98924.06;1739575;82;21116;-63
2023/01/17 12:20:10;;;;;;;44.13;19.17;;;;;;;5.03;100.00;98906.95;1729162;82;21138;-62
2023/01/17 12:23:03;;;;;;;;;;;;;;;5.05;100.00;98911.66;1726854;82;21609;-61
2023/01/17 12:25:54;;;;;;;43.00;18.48;;;;;;;5.06;100.00;98905.19;1719747;83;20203;-64
2023/01/17 12:28:40;;;;;;;43.58;18.95;;;;;;;5.05;100.00;98903.51;1720449;83;22301;-63
2023/01/17 12:31:20;;;;;;;45.03;18.70;;;;;;;5.05;100.00;98907.58;1637064;86;21173;-63
2023/01/17 12:33:58;;;;;;;46.50;19.23;;;;;;;5.04;100.00;98909.46;1624897;87;21384;-62
2023/01/17 12:36:52;;;;;;;43.42;18.98;;;;;;;5.05;100.00;98908.94;1622437;88;21166;-64
2023/01/17 12:39:25;;;;;;;46.18;18.62;;;;;;;5.04;100.00;98907.27;1624402;88;21166;-63
2023/01/17 12:42:17;;;;;;;42.98;18.67;;;;;;;5.07;100.00;98910.94;1624354;88;21143;-63
2023/01/17 12:45:05;;;;;;;44.85;19.48;;;;;;;5.10;100.00;98917.33;1624123;88;21339;-63
2023/01/17 12:47:36;;;;;;;;;;;;;;;5.11;100.00;98920.36;1626750;88;21245;-62
2023/01/17 12:50:29;;;;;;;44.60;19.00;;;;;;;5.11;100.00;98905.43;1691998;84;20223;-63
2023/01/17 12:53:06;;;;;;;41.98;18.48;;;;;;;5.10;100.00;98913.25;1707255;83;21135;-63
2023/01/17 12:56:01;;;;;;;42.10;18.70;;;;;;;5.12;100.00;98921.20;1707573;83;21138;-63
2023/01/17 12:58:44;;;;;;;43.33;18.17;;;;;;;5.13;100.00;98926.43;1707619;83;21123;-62
2023/01/17 13:01:26;;;;;;;40.08;17.90;;;;;;;5.15;100.00;98933.02;1708010;83;21125;-62
2023/01/17 13:04:18;;;;;;;44.58;19.80;;;;;;;5.16;100.00;98927.91;1679439;85;21668;-62
2023/01/17 13:07:13;;;;;;;43.10;18.32;;;;;;;5.16;100.00;98933.34;1673781;85;21178;-63
2023/01/17 13:09:51;;;;;;;38.98;17.75;;;;;;;5.18;100.00;98930.74;1688557;84;21123;-64
2023/01/17 13:12:24;;;;;;;45.52;19.45;;;;;;;5.19;100.00;98928.34;1707569;83;21127;-61
2023/01/17 13:14:54;;;;;;;41.95;18.10;;;;;;;5.20;100.00;98921.04;1707099;83;21589;-61
2023/01/17 13:17:43;;;;;;;43.83;18.80;;;;;;;5.22;100.00;98922.55;1675151;85;21168;-62
2023/01/17 13:20:34;;;;;;;;;;;;;;;5.23;100.00;98926.94;1681678;85;21131;-63
2023/01/17 13:23:19;;;;;;;45.73;19.40;;;;;;;5.25;100.00;98928.09;1601391;89;20202;-63